Warning: fopen(/var/www/metroair/shared/private/wxdata/TAF/AVWX/taf_LOWW): failed to open stream: Permission denied in /var/www/metroair/shared/private/library/orig_library/lib_airport.php on line 533

Warning: fwrite() expects parameter 1 to be resource, boolean given in /var/www/metroair/shared/private/library/orig_library/lib_airport.php on line 534

Warning: fclose() expects parameter 1 to be resource, boolean given in /var/www/metroair/shared/private/library/orig_library/lib_airport.php on line 535

MET6413 - London Heathrow to Vienna

Boeing 737-800
G-FLII - Fly UK
1 hr 55 mins
689 nm
Fly UK Codeshare - Daily

Departure

Departing from
London Heathrow (LHR)
Departure gate
Terminal 3
Scheduled Departure
GMT 1045
Local 1045
METAR EGLL 220550Z AUTO 25015KT 9999 OVC013 11/09 Q1009 NOSIG
TAF TAF EGLL 220456Z 2206/2312 25018G28KT 9999 BKN018 PROB30 TEMPO 2206/2210 BKN014 BECMG 2216/2219 24014KT PROB30 TEMPO 2217/2303 8000 -RA BKN014 BECMG 2304/2306 22018G28KT TEMPO 2307/2310 22028G42KT 6000 SHRA BECMG 2310/2312 26020G35KT TEMPO 2310/2312 27030
  • No charts available

Arrival

Arriving at
Vienna (VIE)
Arrival gate
Terminal 3
Scheduled Arrival
GMT 1240
Local 1340
METAR LOWW 220550Z 19008KT 9999 -SHRA FEW030 BKN036 07/06 Q1013 NOSIG
TAF TAF LOWW 220515Z 2206/2312 22010KT 9999 FEW040 BKN060 TX14/2310Z TN07/2206Z TEMPO 2206/2209 18006KT -RA BKN040 BECMG 2209/2212 27014KT FEW040 BKN100 TEMPO 2212/2305 28020KT CAVOK

Route Map

Planning Resources

DET Q70 KOK UL607 REMBA/N0442F390 UL607 RIDSU UZ738 RIDAR UZ98 MIQ UL605 BIBAG Q104 FRE Q105 VENEN
EGLL KOK LGE FFM TENLO RINIG LOWW
DET Q70 KOK UL607 FERDI/N0451F350 UL607 MATUG/N0453F370 UZ660 BAMAS DCT ERETO UZ650 VEMUT DCT GIMBO UZ37 MASUR
DET1K DET L6 DVR L9 KONAN UL706 AMASI UM149 BOMBI UL984 OSBIT UZ205 LULAR Z205 VENEN VENE2
DET2F DET UL6 DVR UL9 KONAN UL607 MATUG UZ660 ENITA Z660 ETVIS Z37 BUDEX Z205 VENEN VENE2W
Route:
OFP Layout:
Units:
Detailed Navlog:
ETOPS Planning:
Plan Stepclimbs:
Runway Analysis:
Include NOTAMS:
FIR NOTAMS:
Flight Maps:

Return Flights

MET6414 (Operated by Fly UK)
Boeing 737-800
1310 GMT

Popularity

Hub Current Bids PiReps this month Total PiReps
KMCI 0 0 5
KLAX 0 0 4
KBOS 0 0 2